Time;durP1;ratioP1;P1;durP2;ratioP2;P2;SDS_P1;SDS_P2;PMS_P1;PMS_P2;Temp;Humidity;BMP_temperature;BMP_pressure;BME280_temperature;BME280_humidity;BME280_pressure;Samples;Min_cycle;Max_cycle;Signal;HPM_P1;HPM_P2
2023/01/21 00:00:22;;;;;;;2.58;2.10;;;11.60;71.10;;;;;;6213219;23;20024;-67
2023/01/21 00:02:47;;;;;;;2.70;2.15;;;11.60;71.20;;;;;;6213266;23;19997;-67
2023/01/21 00:05:13;;;;;;;3.55;2.10;;;11.60;71.20;;;;;;6216368;23;20107;-67
2023/01/21 00:07:38;;;;;;;2.75;2.20;;;11.60;71.10;;;;;;6216412;23;20055;-67
2023/01/21 00:10:04;;;;;;;2.67;2.17;;;11.60;71.10;;;;;;6190216;23;20008;-67
2023/01/21 00:12:30;;;;;;;2.63;2.22;;;11.60;71.10;;;;;;6216542;23;20007;-67
2023/01/21 00:14:56;;;;;;;6.22;2.15;;;11.60;71.10;;;;;;6215046;23;20008;-67
2023/01/21 00:17:21;;;;;;;2.67;2.00;;;11.60;71.20;;;;;;6216339;23;20008;-67
2023/01/21 00:19:47;;;;;;;3.03;2.10;;;11.60;71.10;;;;;;6216462;23;20001;-67
2023/01/21 00:22:12;;;;;;;2.50;2.05;;;11.60;71.20;;;;;;6214472;23;20026;-67
2023/01/21 00:24:38;;;;;;;2.90;2.17;;;11.60;71.10;;;;;;6214826;23;20017;-67
2023/01/21 00:27:04;;;;;;;2.75;2.28;;;11.60;71.10;;;;;;6216427;23;20009;-67
2023/01/21 00:29:29;;;;;;;3.20;1.95;;;11.60;71.10;;;;;;6214822;23;20005;-67
2023/01/21 00:31:55;;;;;;;2.33;1.90;;;11.60;71.10;;;;;;6214738;23;20341;-67
2023/01/21 00:34:21;;;;;;;2.78;2.00;;;11.60;71.10;;;;;;6216126;23;20009;-67
2023/01/21 00:36:46;;;;;;;2.13;1.77;;;11.60;71.10;;;;;;6214827;23;20001;-67
2023/01/21 00:39:12;;;;;;;2.38;2.17;;;11.60;71.10;;;;;;6216200;23;20067;-67
2023/01/21 00:41:37;;;;;;;2.70;1.88;;;11.70;71.20;;;;;;6216201;23;20372;-67
2023/01/21 00:44:04;;;;;;;2.05;1.85;;;11.60;71.10;;;;;;6214841;23;20449;-67
2023/01/21 00:46:30;;;;;;;1.60;1.50;;;11.60;71.10;;;;;;6216235;23;19997;-67
2023/01/21 00:48:55;;;;;;;2.60;1.90;;;11.60;71.10;;;;;;6214913;23;20341;-67
2023/01/21 00:51:21;;;;;;;2.80;2.17;;;11.60;71.10;;;;;;6215993;23;20001;-67
2023/01/21 00:53:47;;;;;;;2.63;2.25;;;11.60;71.10;;;;;;6215991;23;20043;-67
2023/01/21 00:56:13;;;;;;;1.98;1.80;;;11.60;71.10;;;;;;6216153;23;20005;-67
2023/01/21 00:58:39;;;;;;;2.28;2.08;;;11.60;71.10;;;;;;6214711;23;20000;-67
2023/01/21 01:01:06;;;;;;;2.03;1.80;;;11.60;71.10;;;;;;6214701;23;20071;-67
2023/01/21 01:03:32;;;;;;;2.08;1.83;;;11.60;71.10;;;;;;6214618;23;20024;-67
2023/01/21 01:06:12;;;;;;;2.47;1.83;;;11.60;71.10;;;;;;6189307;23;20007;-67
2023/01/21 01:08:38;;;;;;;1.88;1.77;;;11.60;71.50;;;;;;6191121;23;20005;-67
2023/01/21 01:11:04;;;;;;;2.35;2.05;;;11.60;71.00;;;;;;6214618;23;20080;-67
2023/01/21 01:13:29;;;;;;;2.95;1.95;;;11.60;71.00;;;;;;6216063;23;20449;-67
2023/01/21 01:15:56;;;;;;;2.20;1.83;;;11.60;71.10;;;;;;6215194;23;20055;-67
2023/01/21 01:18:23;;;;;;;2.28;1.85;;;11.60;71.10;;;;;;6215873;23;19997;-67
2023/01/21 01:20:48;;;;;;;2.05;1.80;;;11.60;71.00;;;;;;6214371;23;19997;-67
2023/01/21 01:23:14;;;;;;;3.20;1.80;;;11.60;71.00;;;;;;6214135;23;20135;-67
2023/01/21 01:25:40;;;;;;;2.30;1.77;;;11.60;71.10;;;;;;6216062;23;20078;-67
2023/01/21 01:28:05;;;;;;;2.85;1.95;;;11.60;71.00;;;;;;6214458;23;20071;-67
2023/01/21 01:30:31;;;;;;;2.38;1.88;;;11.60;71.10;;;;;;6189062;23;20004;-67
2023/01/21 01:32:56;;;;;;;2.30;1.92;;;11.60;71.00;;;;;;6189246;23;20460;-67
2023/01/21 01:35:22;;;;;;;2.75;1.77;;;11.60;71.00;;;;;;6214053;23;20005;-67
2023/01/21 01:37:48;;;;;;;2.40;2.10;;;11.60;71.00;;;;;;6215628;23;20074;-67
2023/01/21 01:40:13;;;;;;;2.60;1.90;;;11.60;71.00;;;;;;6214143;23;20510;-67
2023/01/21 01:42:39;;;;;;;2.10;1.90;;;11.60;71.00;;;;;;6215716;23;20003;-71
2023/01/21 01:45:07;;;;;;;2.17;1.85;;;11.60;71.00;;;;;;6214117;23;20460;-71
2023/01/21 01:47:48;;;;;;;2.75;1.70;;;11.60;71.00;;;;;;6214091;23;20008;-71
2023/01/21 01:50:15;;;;;;;2.15;1.77;;;11.60;71.00;;;;;;6214082;23;20003;-71
2023/01/21 01:52:41;;;;;;;2.75;2.00;;;11.60;71.00;;;;;;6189370;23;20015;-71
2023/01/21 01:55:07;;;;;;;2.58;2.15;;;11.60;71.00;;;;;;6213968;23;20008;-71
2023/01/21 01:57:40;;;;;;;1.80;1.70;;;11.60;71.00;;;;;;6189129;23;20009;-71
2023/01/21 02:00:07;;;;;;;2.47;1.95;;;11.60;71.00;;;;;;6189567;23;20479;-71
2023/01/21 02:02:33;;;;;;;2.83;1.90;;;11.60;71.00;;;;;;6214234;23;20001;-71
2023/01/21 02:05:01;;;;;;;2.65;1.90;;;11.60;71.00;;;;;;6213737;23;20456;-71
2023/01/21 02:07:27;;;;;;;3.03;2.20;;;11.60;71.10;;;;;;6189371;23;20004;-71
2023/01/21 02:09:53;;;;;;;1.90;1.70;;;11.60;71.10;;;;;;6189299;23;20100;-71
2023/01/21 02:12:19;;;;;;;2.67;2.10;;;11.60;71.00;;;;;;6213857;23;20448;-71
2023/01/21 02:14:44;;;;;;;1.65;1.55;;;11.60;71.00;;;;;;6213852;23;20467;-71
2023/01/21 02:17:20;;;;;;;2.22;1.90;;;11.60;71.00;;;;;;6188665;23;19996;-71
2023/01/21 02:20:17;;;;;;;1.80;1.63;;;11.60;72.00;;;;;;6213747;23;20004;-71
2023/01/21 02:22:58;;;;;;;2.20;1.88;;;11.60;71.00;;;;;;6213787;23;20515;-71
2023/01/21 02:25:58;;;;;;;2.00;1.52;;;11.60;71.00;;;;;;6213824;23;20015;-71
2023/01/21 02:28:38;;;;;;;1.75;1.50;;;11.60;71.00;;;;;;6070076;23;20093;-71
2023/01/21 02:31:28;;;;;;;2.05;1.70;;;11.60;71.00;;;;;;6093992;23;20077;-71
2023/01/21 02:34:34;;;;;;;2.70;1.85;;;11.60;71.00;;;;;;6093940;23;20026;-71
2023/01/21 02:37:32;;;;;;;2.35;1.60;;;11.60;71.00;;;;;;6066090;23;20016;-71
2023/01/21 02:40:02;;;;;;;2.15;1.70;;;11.60;71.00;;;;;;6081558;23;20007;-71
2023/01/21 02:42:36;;;;;;;4.32;1.88;;;11.50;70.90;;;;;;6070364;23;20415;-71
2023/01/21 02:45:07;;;;;;;1.80;1.70;;;11.60;71.00;;;;;;6071219;23;20019;-71
2023/01/21 02:48:05;;;;;;;2.03;1.75;;;11.60;71.00;;;;;;6093805;23;20034;-71
2023/01/21 02:50:42;;;;;;;2.17;1.73;;;11.60;71.00;;;;;;6094040;23;20010;-71
2023/01/21 02:53:26;;;;;;;1.63;1.50;;;11.50;70.90;;;;;;6071156;23;20010;-71
2023/01/21 02:55:52;;;;;;;1.85;1.50;;;11.60;71.00;;;;;;6072029;23;20158;-71
2023/01/21 02:58:23;;;;;;;4.00;1.70;;;11.50;70.90;;;;;;6070108;23;20003;-71
2023/01/21 03:00:55;;;;;;;1.67;1.50;;;11.60;71.00;;;;;;6071038;23;20419;-71
2023/01/21 03:03:22;;;;;;;1.90;1.75;;;11.60;71.00;;;;;;6093555;23;20096;-71
2023/01/21 03:05:59;;;;;;;1.73;1.63;;;11.60;71.00;;;;;;6205719;23;20008;-71
2023/01/21 03:08:47;;;;;;;2.30;1.77;;;11.60;71.00;;;;;;6188359;23;20345;-71
2023/01/21 03:11:15;;;;;;;2.20;1.55;;;11.50;70.90;;;;;;6190703;23;20000;-71
2023/01/21 03:19:18;;;;;;;1.92;1.50;;;11.50;71.90;;;;;;6192523;23;20062;-71
2023/01/21 03:21:44;;;;;;;1.55;1.33;;;11.50;70.90;;;;;;6188435;23;20075;-71
2023/01/21 03:24:10;;;;;;;1.80;1.52;;;11.60;71.00;;;;;;6188412;23;20016;-71
2023/01/21 03:26:37;;;;;;;1.50;1.40;;;11.50;71.00;;;;;;6213456;23;20436;-71
2023/01/21 03:29:12;;;;;;;2.20;1.70;;;11.50;70.90;;;;;;6188763;23;20365;-71
2023/01/21 03:31:39;;;;;;;2.28;1.67;;;11.50;70.90;;;;;;6213255;23;20004;-71
2023/01/21 03:34:07;;;;;;;2.00;1.65;;;11.50;70.90;;;;;;6213317;23;20005;-71
2023/01/21 03:36:47;;;;;;;2.28;1.75;;;11.50;70.90;;;;;;6188711;23;20103;-71
2023/01/21 03:39:31;;;;;;;2.85;1.88;;;11.50;70.90;;;;;;6190156;23;20001;-71
2023/01/21 03:41:57;;;;;;;1.75;1.63;;;11.50;70.90;;;;;;6214713;23;20026;-71
2023/01/21 03:44:22;;;;;;;1.85;1.60;;;11.50;70.90;;;;;;6214785;23;20441;-71
2023/01/21 03:46:51;;;;;;;1.70;1.40;;;11.50;70.90;;;;;;6212932;23;20004;-71
2023/01/21 03:49:21;;;;;;;2.35;1.58;;;11.50;70.90;;;;;;6213267;23;20005;-71
2023/01/21 03:51:52;;;;;;;2.25;1.80;;;11.50;70.90;;;;;;6214745;23;20070;-71
2023/01/21 03:54:17;;;;;;;2.13;1.58;;;11.50;70.90;;;;;;6188314;23;19997;-71
2023/01/21 03:56:43;;;;;;;1.98;1.50;;;11.50;70.90;;;;;;6213156;23;20007;-71
2023/01/21 03:59:09;;;;;;;1.73;1.63;;;11.50;70.90;;;;;;6214654;23;20076;-71
2023/01/21 04:01:34;;;;;;;1.80;1.70;;;11.50;70.90;;;;;;6214458;23;19997;-71
2023/01/21 04:04:00;;;;;;;1.75;1.52;;;11.50;70.90;;;;;;6214606;23;20467;-71
2023/01/21 04:06:26;;;;;;;1.92;1.73;;;11.50;70.90;;;;;;6213089;23;20058;-71
2023/01/21 04:08:51;;;;;;;1.60;1.50;;;11.50;70.90;;;;;;6213236;23;20036;-71
2023/01/21 04:11:17;;;;;;;1.60;1.50;;;11.50;70.90;;;;;;6213059;23;20139;-71
2023/01/21 04:13:43;;;;;;;1.40;1.30;;;11.50;70.90;;;;;;6214608;23;20000;-71
2023/01/21 04:16:08;;;;;;;2.00;1.80;;;11.50;70.90;;;;;;6187897;23;20001;-71
2023/01/21 04:18:34;;;;;;;2.72;1.50;;;11.50;70.90;;;;;;6214388;23;20080;-71
2023/01/21 04:20:59;;;;;;;2.33;1.42;;;11.50;70.90;;;;;;6213111;23;20024;-71
2023/01/21 04:23:25;;;;;;;1.88;1.60;;;11.50;70.90;;;;;;6212822;23;20044;-71
2023/01/21 04:25:51;;;;;;;2.13;1.55;;;11.50;70.90;;;;;;6213153;23;20007;-71
2023/01/21 04:28:17;;;;;;;1.63;1.40;;;11.50;70.90;;;;;;6188237;23;20092;-71
2023/01/21 04:30:43;;;;;;;1.42;1.30;;;11.50;70.90;;;;;;6187787;23;20028;-71
2023/01/21 04:33:08;;;;;;;1.58;1.40;;;11.50;70.90;;;;;;6188171;23;20345;-71
2023/01/21 04:35:35;;;;;;;1.90;1.45;;;11.50;70.90;;;;;;6188066;23;20079;-71
2023/01/21 04:38:00;;;;;;;2.03;1.60;;;11.50;70.90;;;;;;6187958;23;20377;-71
2023/01/21 04:40:26;;;;;;;1.77;1.58;;;11.50;70.90;;;;;;6213037;23;20381;-71
2023/01/21 04:42:51;;;;;;;1.73;1.52;;;11.50;70.90;;;;;;6213038;23;20564;-71
2023/01/21 04:45:17;;;;;;;2.15;1.50;;;11.50;70.90;;;;;;6214106;23;20399;-71
2023/01/21 04:47:43;;;;;;;2.28;1.63;;;11.50;70.90;;;;;;6214449;23;20035;-71
2023/01/21 04:50:10;;;;;;;1.80;1.30;;;11.50;70.90;;;;;;6188618;23;20035;-71
2023/01/21 04:52:36;;;;;;;2.92;1.70;;;11.50;70.90;;;;;;6189831;23;20455;-71
2023/01/21 04:55:01;;;;;;;1.35;1.25;;;11.50;70.90;;;;;;6216045;23;20001;-71
2023/01/21 04:57:27;;;;;;;1.63;1.52;;;11.50;70.90;;;;;;6215861;23;19997;-71
2023/01/21 04:59:53;;;;;;;1.42;1.27;;;11.50;70.90;;;;;;6216169;23;20007;-71
2023/01/21 05:02:18;;;;;;;1.67;1.40;;;11.50;70.90;;;;;;6214629;23;20007;-71
2023/01/21 05:04:44;;;;;;;2.05;1.52;;;11.50;70.90;;;;;;6214610;23;20088;-71
2023/01/21 05:07:10;;;;;;;1.70;1.30;;;11.50;70.90;;;;;;6215951;23;20385;-71
2023/01/21 05:09:36;;;;;;;1.52;1.38;;;11.50;70.90;;;;;;6216205;23;20005;-71
2023/01/21 05:12:02;;;;;;;1.92;1.60;;;11.50;70.90;;;;;;6214405;23;20082;-71
2023/01/21 05:14:28;;;;;;;1.50;1.40;;;11.50;70.90;;;;;;6215826;23;20348;-71
2023/01/21 05:16:53;;;;;;;1.38;1.10;;;11.40;70.80;;;;;;6214528;23;19997;-71
2023/01/21 05:19:19;;;;;;;1.63;1.40;;;11.50;70.90;;;;;;6215787;23;20007;-71
2023/01/21 05:21:44;;;;;;;1.98;1.40;;;11.50;70.90;;;;;;6214415;23;20004;-71
2023/01/21 05:24:10;;;;;;;1.70;1.30;;;11.50;70.90;;;;;;6215626;23;20084;-71
2023/01/21 05:26:36;;;;;;;1.80;1.40;;;11.50;71.20;;;;;;6214097;23;20402;-71
2023/01/21 05:29:01;;;;;;;1.90;1.23;;;11.40;70.90;;;;;;6215921;23;20028;-71
2023/01/21 05:31:27;;;;;;;1.75;1.20;;;11.40;70.80;;;;;;6215683;23;20011;-71
2023/01/21 05:33:53;;;;;;;2.03;1.40;;;11.50;70.90;;;;;;6214418;23;20067;-71
2023/01/21 05:36:18;;;;;;;1.52;1.40;;;11.40;70.80;;;;;;6214277;23;20005;-71
2023/01/21 05:38:44;;;;;;;1.60;1.40;;;11.40;70.80;;;;;;6214222;23;20009;-71
2023/01/21 05:41:09;;;;;;;2.80;1.45;;;11.50;70.90;;;;;;6215538;23;20333;-71
2023/01/21 05:43:35;;;;;;;1.30;1.20;;;11.50;70.90;;;;;;6215791;23;20388;-71
2023/01/21 05:46:01;;;;;;;1.67;1.30;;;11.40;70.80;;;;;;6214130;23;20437;-71
2023/01/21 05:48:28;;;;;;;1.20;1.10;;;11.40;70.80;;;;;;6215653;23;20004;-71
2023/01/21 05:50:53;;;;;;;1.70;1.23;;;11.40;70.80;;;;;;6215761;23;20337;-71
2023/01/21 05:53:19;;;;;;;2.90;1.20;;;11.50;70.90;;;;;;6215473;23;20001;-71
2023/01/21 05:55:45;;;;;;;1.40;1.30;;;11.40;70.90;;;;;;6213747;23;20354;-71
2023/01/21 05:58:11;;;;;;;1.48;1.33;;;11.40;70.80;;;;;;6215609;23;20001;-71
2023/01/21 06:00:37;;;;;;;1.58;1.48;;;11.50;70.90;;;;;;6189084;23;20000;-71
2023/01/21 06:03:03;;;;;;;1.35;1.25;;;11.50;70.80;;;;;;6215671;23;20004;-71
2023/01/21 06:05:28;;;;;;;1.30;1.20;;;11.50;70.90;;;;;;6214171;23;20004;-71
2023/01/21 06:07:54;;;;;;;1.50;1.13;;;11.50;70.90;;;;;;6213898;23;20001;-71
2023/01/21 06:10:20;;;;;;;1.35;1.23;;;11.50;70.80;;;;;;6215117;23;20001;-71
2023/01/21 06:12:48;;;;;;;2.40;1.15;;;11.50;70.80;;;;;;6189091;23;20001;-71
2023/01/21 06:15:14;;;;;;;1.27;1.17;;;11.40;70.80;;;;;;6213862;23;20000;-71
2023/01/21 06:17:39;;;;;;;1.80;1.17;;;11.50;70.90;;;;;;6215291;23;20008;-71
2023/01/21 06:20:06;;;;;;;1.25;1.10;;;11.50;70.80;;;;;;6213875;23;20032;-71
2023/01/21 06:22:32;;;;;;;1.15;1.05;;;11.40;70.70;;;;;;6215093;23;20130;-71
2023/01/21 06:24:57;;;;;;;1.50;1.40;;;11.40;70.70;;;;;;6213739;23;20377;-71
2023/01/21 06:27:23;;;;;;;0.90;0.90;;;11.40;70.80;;;;;;6215293;23;20020;-71
2023/01/21 06:29:49;;;;;;;1.65;1.23;;;11.50;70.90;;;;;;6188659;23;20009;-71
2023/01/21 06:32:14;;;;;;;1.27;1.17;;;11.40;70.80;;;;;;6215293;23;20009;-71
2023/01/21 06:34:40;;;;;;;1.23;1.13;;;11.40;70.80;;;;;;6188717;23;20380;-71
2023/01/21 06:37:06;;;;;;;1.85;1.00;;;11.40;70.70;;;;;;6215056;23;20001;-71
2023/01/21 06:39:31;;;;;;;1.20;1.10;;;11.40;70.80;;;;;;6213545;23;20122;-71
2023/01/21 06:41:57;;;;;;;1.20;1.10;;;11.40;70.70;;;;;;6213683;23;20032;-71
2023/01/21 06:44:22;;;;;;;1.02;0.98;;;11.40;70.80;;;;;;6214973;23;20012;-71
2023/01/21 06:46:48;;;;;;;1.60;1.50;;;11.40;70.70;;;;;;6215156;23;19996;-71
2023/01/21 06:49:14;;;;;;;0.98;0.85;;;11.40;70.70;;;;;;6214968;23;20071;-71
2023/01/21 06:51:39;;;;;;;1.63;1.33;;;11.50;70.80;;;;;;6214937;23;20024;-71
2023/01/21 06:54:05;;;;;;;1.50;1.20;;;11.40;70.80;;;;;;6215048;23;20352;-71
2023/01/21 06:56:31;;;;;;;0.90;0.90;;;11.40;70.70;;;;;;6214829;23;20001;-71
2023/01/21 06:58:56;;;;;;;1.40;1.30;;;11.40;70.70;;;;;;6215129;23;20000;-71
2023/01/21 07:01:22;;;;;;;2.15;1.10;;;11.40;70.70;;;;;;6213549;23;20005;-71
2023/01/21 07:03:47;;;;;;;1.10;1.00;;;11.40;70.70;;;;;;6214798;23;20340;-71
2023/01/21 07:06:13;;;;;;;1.35;1.05;;;11.40;70.70;;;;;;6215091;23;20513;-71
2023/01/21 07:08:39;;;;;;;1.13;0.95;;;11.40;70.70;;;;;;6214547;23;20079;-71
2023/01/21 07:11:04;;;;;;;1.55;1.45;;;11.40;70.70;;;;;;6214839;23;20035;-71
2023/01/21 07:13:30;;;;;;;1.60;1.13;;;11.40;70.70;;;;;;6214621;23;20001;-71
2023/01/21 07:16:00;;;;;;;1.13;1.02;;;11.40;70.80;;;;;;6213189;23;20100;-71
2023/01/21 07:18:25;;;;;;;1.20;1.10;;;11.40;70.70;;;;;;6213398;23;20075;-71
2023/01/21 07:20:51;;;;;;;1.20;1.10;;;11.40;70.70;;;;;;6213340;23;20369;-71
2023/01/21 07:23:16;;;;;;;1.20;1.10;;;11.40;70.70;;;;;;6212844;23;20024;-71
2023/01/21 07:25:42;;;;;;;1.50;1.23;;;11.40;70.70;;;;;;6214858;23;20008;-71
2023/01/21 07:28:08;;;;;;;2.13;1.02;;;11.40;70.70;;;;;;6214857;23;20012;-71
2023/01/21 07:30:33;;;;;;;1.20;1.10;;;11.40;70.70;;;;;;6213016;23;20011;-71
2023/01/21 07:33:05;;;;;;;3.90;1.10;;;11.40;70.70;;;;;;6213014;23;20008;-71
2023/01/21 07:35:30;;;;;;;1.27;1.10;;;11.40;70.70;;;;;;6213429;23;20433;-71
2023/01/21 07:37:56;;;;;;;1.40;1.10;;;11.40;70.70;;;;;;6212955;23;20000;-71
2023/01/21 07:40:21;;;;;;;1.30;1.20;;;11.40;70.70;;;;;;6214687;23;20067;-71
2023/01/21 07:42:53;;;;;;;1.25;1.15;;;11.40;70.70;;;;;;6214607;23;20024;-71
2023/01/21 07:45:20;;;;;;;1.10;1.00;;;11.40;70.60;;;;;;6188345;23;20004;-71
2023/01/21 07:47:45;;;;;;;1.58;1.00;;;11.40;70.70;;;;;;6213170;23;20134;-71
2023/01/21 07:50:11;;;;;;;1.30;0.98;;;11.40;70.70;;;;;;6214805;23;20032;-71
2023/01/21 07:52:37;;;;;;;0.73;0.73;;;11.40;70.70;;;;;;6214272;23;20005;-71
2023/01/21 07:55:03;;;;;;;1.17;1.08;;;11.40;70.70;;;;;;6213130;23;20004;-71
2023/01/21 07:57:28;;;;;;;1.25;1.15;;;11.40;70.70;;;;;;6214777;23;20433;-71
2023/01/21 07:59:54;;;;;;;1.40;1.30;;;11.40;70.70;;;;;;6188195;23;19997;-71
2023/01/21 08:02:20;;;;;;;1.25;1.00;;;11.40;70.70;;;;;;6214677;23;20404;-71
2023/01/21 08:04:45;;;;;;;5.72;1.30;;;11.40;70.70;;;;;;6214434;23;20009;-71
2023/01/21 08:07:11;;;;;;;0.80;0.80;;;11.40;70.70;;;;;;6212908;23;20001;-71
2023/01/21 08:09:37;;;;;;;1.02;0.93;;;11.40;70.70;;;;;;6213257;23;20008;-71
2023/01/21 08:12:03;;;;;;;0.90;0.90;;;11.40;70.70;;;;;;6213272;23;20007;-71
2023/01/21 08:14:29;;;;;;;0.82;0.80;;;11.40;70.70;;;;;;6214287;23;20341;-71
2023/01/21 08:16:54;;;;;;;1.27;1.00;;;11.40;70.60;;;;;;6214608;23;20055;-71
2023/01/21 08:19:20;;;;;;;1.42;1.33;;;11.40;70.70;;;;;;6214515;23;20024;-71
2023/01/21 08:21:45;;;;;;;0.75;0.75;;;11.40;70.70;;;;;;6214251;23;20020;-71
2023/01/21 08:24:11;;;;;;;1.10;1.00;;;11.40;70.60;;;;;;6213372;23;20373;-71
2023/01/21 08:26:37;;;;;;;1.42;1.10;;;11.40;70.70;;;;;;6216295;23;20353;-71
2023/01/21 08:29:02;;;;;;;1.42;1.23;;;11.40;70.70;;;;;;6216417;23;20005;-71
2023/01/21 08:31:28;;;;;;;0.90;0.90;;;11.40;70.70;;;;;;6165141;23;20013;-71
2023/01/21 08:33:54;;;;;;;1.17;1.08;;;11.40;70.70;;;;;;6214840;23;20055;-71
2023/01/21 08:36:19;;;;;;;0.98;0.88;;;11.40;70.60;;;;;;6216138;23;20012;-71
2023/01/21 08:38:45;;;;;;;2.08;1.23;;;11.40;70.70;;;;;;6214783;23;20059;-71
2023/01/21 08:41:10;;;;;;;1.20;1.10;;;11.40;70.70;;;;;;6216315;23;19997;-71
2023/01/21 08:43:36;;;;;;;1.85;1.20;;;11.40;70.60;;;;;;6216267;23;20003;-71
2023/01/21 08:46:02;;;;;;;1.10;1.00;;;11.40;70.70;;;;;;6216154;23;20004;-71
2023/01/21 08:48:28;;;;;;;1.35;0.95;;;11.30;70.60;;;;;;6214845;23;20068;-71
2023/01/21 08:50:57;;;;;;;1.58;1.27;;;11.40;70.60;;;;;;6214720;23;20000;-71
2023/01/21 08:53:23;;;;;;;1.13;1.02;;;11.40;70.70;;;;;;6190084;23;20047;-71
2023/01/21 08:55:48;;;;;;;1.63;1.00;;;11.30;70.60;;;;;;6216059;23;20005;-71
2023/01/21 08:58:14;;;;;;;1.40;1.30;;;11.40;70.60;;;;;;6214859;23;20000;-71
2023/01/21 09:00:40;;;;;;;1.45;1.10;;;11.40;70.70;;;;;;6214717;23;20007;-71
2023/01/21 09:03:06;;;;;;;2.17;1.15;;;11.40;70.60;;;;;;6216396;23;20004;-71
2023/01/21 09:05:32;;;;;;;1.60;1.33;;;11.40;70.60;;;;;;6214464;23;20001;-71
2023/01/21 09:07:57;;;;;;;1.30;1.20;;;11.30;70.60;;;;;;6214694;23;20024;-71
2023/01/21 09:13:08;;;;;;;1.30;1.10;;;11.30;70.60;;;;;;6216081;23;20356;-71
2023/01/21 09:15:40;;;;;;;1.95;1.60;;;11.40;70.60;;;;;;6214628;23;20464;-71
2023/01/21 09:18:06;;;;;;;1.42;1.33;;;11.40;70.70;;;;;;6189953;23;20003;-71
2023/01/21 09:20:32;;;;;;;1.23;1.13;;;11.40;70.60;;;;;;6215590;23;20001;-71
2023/01/21 09:22:57;;;;;;;1.45;1.35;;;11.30;70.50;;;;;;6215821;23;20016;-71
2023/01/21 09:25:23;;;;;;;1.65;1.55;;;11.40;70.60;;;;;;6189641;23;20008;-71
2023/01/21 09:27:49;;;;;;;2.20;1.40;;;11.40;70.60;;;;;;6215792;23;20012;-71
2023/01/21 09:30:15;;;;;;;1.25;1.15;;;11.40;70.60;;;;;;6216176;23;20009;-71
2023/01/21 09:32:41;;;;;;;1.50;1.40;;;11.30;70.60;;;;;;6215697;23;20005;-71
2023/01/21 09:35:07;;;;;;;2.58;1.20;;;11.40;70.60;;;;;;6188915;23;20325;-71
2023/01/21 09:37:33;;;;;;;1.58;1.48;;;11.40;70.60;;;;;;6189389;23;20004;-71
2023/01/21 09:40:00;;;;;;;1.80;1.70;;;11.40;70.60;;;;;;6189501;23;19997;-71
2023/01/21 09:42:26;;;;;;;1.40;1.30;;;11.30;70.50;;;;;;6215827;23;20011;-71
2023/01/21 09:44:52;;;;;;;2.58;1.52;;;11.40;70.60;;;;;;6189305;23;20345;-71
2023/01/21 09:47:38;;;;;;;2.28;1.80;;;11.40;70.60;;;;;;6189306;23;20000;-71
2023/01/21 09:50:15;;;;;;;1.45;1.35;;;11.40;70.70;;;;;;6214395;23;20005;-71
2023/01/21 09:52:42;;;;;;;1.60;1.50;;;11.30;70.60;;;;;;6191326;23;20004;-71
2023/01/21 09:55:15;;;;;;;1.60;1.50;;;11.40;70.60;;;;;;6214103;23;20437;-71
2023/01/21 09:57:55;;;;;;;1.90;1.70;;;11.40;70.60;;;;;;6214264;23;19997;-71
2023/01/21 10:00:26;;;;;;;2.63;1.48;;;11.40;70.60;;;;;;6214295;23;20007;-71
2023/01/21 10:03:03;;;;;;;1.83;1.35;;;11.30;70.60;;;;;;6215386;23;20023;-71
2023/01/21 10:05:55;;;;;;;1.60;1.50;;;11.30;70.60;;;;;;6215704;23;20028;-71
2023/01/21 10:08:39;;;;;;;1.50;1.40;;;11.30;70.60;;;;;;6215501;23;20031;-71
2023/01/21 10:11:25;;;;;;;1.48;1.38;;;11.40;70.60;;;;;;6214278;23;20001;-71
2023/01/21 10:14:20;;;;;;;2.67;1.58;;;11.30;70.60;;;;;;6213966;23;20012;-71
2023/01/21 10:17:37;;;;;;;3.22;1.58;;;11.40;70.60;;;;;;6214044;23;20008;-71
2023/01/21 10:20:19;;;;;;;1.88;1.40;;;11.40;70.60;;;;;;6094194;23;20006;-71
2023/01/21 10:22:55;;;;;;;2.40;1.42;;;11.30;70.60;;;;;;6071497;23;20028;-71
2023/01/21 10:25:21;;;;;;;1.13;1.13;;;11.30;70.60;;;;;;6072009;23;20061;-71
2023/01/21 10:27:47;;;;;;;1.60;1.50;;;11.30;70.60;;;;;;6094218;23;20010;-71
2023/01/21 10:30:41;;;;;;;1.85;1.50;;;11.40;70.70;;;;;;6070440;23;20010;-71
2023/01/21 10:33:15;;;;;;;1.80;1.70;;;11.40;70.70;;;;;;6093830;23;20014;-71
2023/01/21 10:36:07;;;;;;;1.60;1.50;;;11.40;70.70;;;;;;6070804;23;20086;-71
2023/01/21 10:38:52;;;;;;;1.40;1.30;;;11.40;70.70;;;;;;6094193;23;20083;-71
2023/01/21 10:41:23;;;;;;;1.50;1.40;;;11.40;70.80;;;;;;6070157;23;20049;-71
2023/01/21 10:44:07;;;;;;;1.50;1.40;;;11.40;70.70;;;;;;6070493;23;20435;-71
2023/01/21 10:46:40;;;;;;;1.55;1.45;;;11.40;70.70;;;;;;6093889;23;20011;-71
2023/01/21 10:49:24;;;;;;;1.58;1.42;;;11.40;70.70;;;;;;6070212;23;20007;-71
2023/01/21 10:51:56;;;;;;;1.60;1.40;;;11.40;70.70;;;;;;6093885;23;20378;-71
2023/01/21 10:54:47;;;;;;;1.52;1.42;;;11.40;70.70;;;;;;6083173;23;20018;-71
2023/01/21 10:57:28;;;;;;;1.35;1.25;;;11.40;70.80;;;;;;6167113;23;20433;-71
2023/01/21 10:59:56;;;;;;;1.50;1.40;;;11.40;70.80;;;;;;6213628;23;19997;-71
2023/01/21 11:02:29;;;;;;;1.40;1.30;;;11.40;70.70;;;;;;6188623;23;20041;-71
2023/01/21 11:05:00;;;;;;;1.30;1.20;;;11.40;70.80;;;;;;6188707;23;20349;-71
2023/01/21 11:07:26;;;;;;;1.38;1.27;;;11.40;70.80;;;;;;6189678;23;20001;-71
2023/01/21 11:09:52;;;;;;;1.48;1.38;;;11.40;70.80;;;;;;6188311;23;20012;-71
2023/01/21 11:12:19;;;;;;;1.17;1.10;;;11.40;70.80;;;;;;6213672;23;20452;-71
2023/01/21 11:14:57;;;;;;;1.40;1.30;;;11.40;70.80;;;;;;6213237;23;20027;-71
2023/01/21 11:17:31;;;;;;;1.50;1.40;;;11.40;70.80;;;;;;6189236;23;20004;-71
2023/01/21 11:19:58;;;;;;;1.20;1.15;;;11.40;70.80;;;;;;6188759;23;20091;-71
2023/01/21 11:22:26;;;;;;;1.27;1.13;;;11.40;70.80;;;;;;6213275;23;20011;-71
2023/01/21 11:24:51;;;;;;;1.50;1.40;;;11.40;70.80;;;;;;6213191;23;20021;-71
2023/01/21 11:27:33;;;;;;;1.50;1.33;;;11.40;70.80;;;;;;6188375;23;20473;-71
2023/01/21 11:29:59;;;;;;;1.30;1.20;;;11.40;70.80;;;;;;6213192;23;20001;-71
2023/01/21 11:32:26;;;;;;;1.52;1.10;;;11.40;70.80;;;;;;6214807;23;20007;-71
2023/01/21 11:35:03;;;;;;;1.25;1.17;;;11.40;70.80;;;;;;6213175;23;20008;-71
2023/01/21 11:37:29;;;;;;;1.55;1.45;;;11.40;70.80;;;;;;6213497;23;20075;-71
2023/01/21 11:40:13;;;;;;;1.35;1.25;;;11.40;70.90;;;;;;6213278;23;19997;-71
2023/01/21 11:42:49;;;;;;;1.40;1.30;;;11.40;70.80;;;;;;6213310;23;19997;-71
2023/01/21 11:45:31;;;;;;;1.20;1.10;;;11.40;70.80;;;;;;6212801;23;20087;-71
2023/01/21 11:47:58;;;;;;;1.80;1.30;;;11.40;70.80;;;;;;6213217;23;20039;-71
2023/01/21 11:50:33;;;;;;;1.55;1.33;;;11.40;70.80;;;;;;6188390;23;20000;-71
2023/01/21 11:53:05;;;;;;;1.38;1.15;;;11.40;70.80;;;;;;6188989;23;20083;-71
2023/01/21 11:55:31;;;;;;;1.20;1.10;;;11.40;70.80;;;;;;6214709;23;20032;-71
2023/01/21 11:57:57;;;;;;;1.35;1.25;;;11.40;70.80;;;;;;6187977;23;20001;-71
2023/01/21 12:00:23;;;;;;;1.40;1.30;;;11.40;70.80;;;;;;6214528;23;20004;-71
2023/01/21 12:02:56;;;;;;;1.48;1.30;;;11.40;70.80;;;;;;6190389;23;19997;-71
2023/01/21 12:05:30;;;;;;;1.70;1.30;;;11.40;71.80;;;;;;6215292;23;20000;-71
2023/01/21 12:07:55;;;;;;;1.60;1.13;;;11.40;70.80;;;;;;6216646;23;20071;-71
2023/01/21 12:10:41;;;;;;;1.27;1.10;;;11.40;70.90;;;;;;6216679;23;20090;-71
2023/01/21 12:13:28;;;;;;;1.58;1.48;;;11.40;70.80;;;;;;6214704;23;20001;-71
2023/01/21 12:16:13;;;;;;;1.35;1.20;;;11.40;70.80;;;;;;6214954;23;20020;-71
2023/01/21 12:19:17;;;;;;;1.60;1.33;;;11.50;70.90;;;;;;6191687;23;20004;-71
2023/01/21 12:21:57;;;;;;;1.45;1.27;;;11.50;70.90;;;;;;6216479;23;20028;-71
2023/01/21 12:24:28;;;;;;;2.55;1.17;;;11.40;70.80;;;;;;6215059;23;20087;-71
2023/01/21 12:27:18;;;;;;;1.50;1.40;;;11.50;70.90;;;;;;6216492;23;20000;-71
2023/01/21 12:29:52;;;;;;;1.05;0.98;;;11.50;71.00;;;;;;6191985;23;20007;-71
2023/01/21 12:32:18;;;;;;;1.20;1.10;;;11.50;70.90;;;;;;6216530;23;19997;-71
2023/01/21 12:34:57;;;;;;;1.38;1.27;;;11.50;70.90;;;;;;6216300;23;20031;-71
2023/01/21 12:37:47;;;;;;;1.40;1.30;;;11.50;70.90;;;;;;6216393;23;20317;-71
2023/01/21 12:40:49;;;;;;;1.30;1.10;;;11.50;70.90;;;;;;6215101;23;20001;-71
2023/01/21 12:43:36;;;;;;;1.27;1.17;;;11.50;70.90;;;;;;6216095;23;20004;-71
2023/01/21 12:46:16;;;;;;;1.42;1.30;;;11.50;70.90;;;;;;6214289;23;20008;-71
2023/01/21 12:48:46;;;;;;;1.65;1.25;;;11.50;70.90;;;;;;6216194;23;20007;-71
2023/01/21 12:51:32;;;;;;;1.20;1.10;;;11.50;71.00;;;;;;6214833;23;20055;-71
2023/01/21 12:54:10;;;;;;;1.10;1.00;;;11.50;71.00;;;;;;6214732;23;20054;-71
2023/01/21 12:57:13;;;;;;;1.42;0.90;;;11.50;71.00;;;;;;6215627;23;20035;-71
2023/01/21 12:59:45;;;;;;;1.42;1.33;;;11.50;71.00;;;;;;6216332;23;20512;-71
2023/01/21 13:02:17;;;;;;;1.40;1.23;;;11.50;71.10;;;;;;6190735;23;20025;-71
2023/01/21 13:05:03;;;;;;;1.05;0.98;;;11.50;71.10;;;;;;6214758;23;20000;-71
2023/01/21 13:07:52;;;;;;;1.23;1.13;;;11.50;71.00;;;;;;6214749;23;20000;-71
2023/01/21 13:10:24;;;;;;;0.93;0.93;;;11.60;71.10;;;;;;6193211;23;19996;-71